sensor_id;sensor_type;location;lat;lon;timestamp;temperature;humidity
32977;DHT22;72327;50.842;4.450;2023-10-08T00:01:41;16.60;99.90
32977;DHT22;72327;50.842;4.450;2023-10-08T00:04:08;16.60;99.90
32977;DHT22;72327;50.842;4.450;2023-10-08T00:06:39;16.50;99.90
32977;DHT22;72327;50.842;4.450;2023-10-08T00:09:05;16.50;99.90
32977;DHT22;72327;50.842;4.450;2023-10-08T00:11:37;16.50;99.90
32977;DHT22;72327;50.842;4.450;2023-10-08T00:14:04;16.50;99.90
32977;DHT22;72327;50.842;4.450;2023-10-08T00:16:35;16.50;99.90
32977;DHT22;72327;50.842;4.450;2023-10-08T00:19:01;16.50;99.90
32977;DHT22;72327;50.842;4.450;2023-10-08T00:21:34;16.50;99.90
32977;DHT22;72327;50.842;4.450;2023-10-08T00:24:01;16.50;99.90
32977;DHT22;72327;50.842;4.450;2023-10-08T00:26:32;16.40;99.90
32977;DHT22;72327;50.842;4.450;2023-10-08T00:29:02;16.40;99.90
32977;DHT22;72327;50.842;4.450;2023-10-08T00:31:44;16.30;99.90
32977;DHT22;72327;50.842;4.450;2023-10-08T00:34:14;16.30;99.90
32977;DHT22;72327;50.842;4.450;2023-10-08T00:36:41;16.30;99.90
32977;DHT22;72327;50.842;4.450;2023-10-08T00:39:08;16.20;99.90
32977;DHT22;72327;50.842;4.450;2023-10-08T00:41:42;16.10;99.90
32977;DHT22;72327;50.842;4.450;2023-10-08T00:44:13;16.10;99.90
32977;DHT22;72327;50.842;4.450;2023-10-08T00:46:42;16.10;99.90
32977;DHT22;72327;50.842;4.450;2023-10-08T00:49:17;16.10;99.90
32977;DHT22;72327;50.842;4.450;2023-10-08T00:51:47;16.10;99.90
32977;DHT22;72327;50.842;4.450;2023-10-08T00:54:15;16.00;99.90
32977;DHT22;72327;50.842;4.450;2023-10-08T00:56:46;16.00;99.90
32977;DHT22;72327;50.842;4.450;2023-10-08T00:59:15;16.00;99.90
32977;DHT22;72327;50.842;4.450;2023-10-08T01:01:43;15.90;99.90
32977;DHT22;72327;50.842;4.450;2023-10-08T01:04:16;15.90;99.90
32977;DHT22;72327;50.842;4.450;2023-10-08T01:06:42;15.80;99.90
32977;DHT22;72327;50.842;4.450;2023-10-08T01:09:08;15.80;99.90
32977;DHT22;72327;50.842;4.450;2023-10-08T01:12:20;15.90;99.90
32977;DHT22;72327;50.842;4.450;2023-10-08T01:15:01;15.80;99.90
32977;DHT22;72327;50.842;4.450;2023-10-08T01:17:52;15.80;99.90
32977;DHT22;72327;50.842;4.450;2023-10-08T01:20:32;15.70;99.90
32977;DHT22;72327;50.842;4.450;2023-10-08T01:23:03;15.70;99.90
32977;DHT22;72327;50.842;4.450;2023-10-08T01:25:49;15.70;99.90
32977;DHT22;72327;50.842;4.450;2023-10-08T01:28:37;15.70;99.90
32977;DHT22;72327;50.842;4.450;2023-10-08T01:31:18;15.80;99.90
32977;DHT22;72327;50.842;4.450;2023-10-08T01:33:44;15.70;99.90
32977;DHT22;72327;50.842;4.450;2023-10-08T01:36:15;15.60;99.90
32977;DHT22;72327;50.842;4.450;2023-10-08T01:38:41;15.60;99.90
32977;DHT22;72327;50.842;4.450;2023-10-08T01:41:08;15.60;99.90
32977;DHT22;72327;50.842;4.450;2023-10-08T01:43:57;15.50;99.90
32977;DHT22;72327;50.842;4.450;2023-10-08T01:46:25;15.50;99.90
32977;DHT22;72327;50.842;4.450;2023-10-08T01:48:52;15.50;99.90
32977;DHT22;72327;50.842;4.450;2023-10-08T01:51:29;15.50;99.90
32977;DHT22;72327;50.842;4.450;2023-10-08T01:54:03;15.50;99.90
32977;DHT22;72327;50.842;4.450;2023-10-08T01:56:36;15.60;99.90
32977;DHT22;72327;50.842;4.450;2023-10-08T01:59:12;15.50;99.90
32977;DHT22;72327;50.842;4.450;2023-10-08T02:01:40;15.60;99.90
32977;DHT22;72327;50.842;4.450;2023-10-08T02:04:13;15.50;99.90
32977;DHT22;72327;50.842;4.450;2023-10-08T02:06:42;15.50;99.90
32977;DHT22;72327;50.842;4.450;2023-10-08T02:09:08;15.50;99.90
32977;DHT22;72327;50.842;4.450;2023-10-08T02:11:47;15.40;99.90
32977;DHT22;72327;50.842;4.450;2023-10-08T02:14:17;15.40;99.90
32977;DHT22;72327;50.842;4.450;2023-10-08T02:16:47;15.40;99.90
32977;DHT22;72327;50.842;4.450;2023-10-08T02:19:13;15.30;99.90
32977;DHT22;72327;50.842;4.450;2023-10-08T02:21:39;15.40;99.90
32977;DHT22;72327;50.842;4.450;2023-10-08T02:24:08;15.30;99.90
32977;DHT22;72327;50.842;4.450;2023-10-08T02:26:37;15.30;99.90
32977;DHT22;72327;50.842;4.450;2023-10-08T02:29:06;15.30;99.90
32977;DHT22;72327;50.842;4.450;2023-10-08T02:31:40;15.30;99.90
32977;DHT22;72327;50.842;4.450;2023-10-08T02:34:07;15.20;99.90
32977;DHT22;72327;50.842;4.450;2023-10-08T02:36:36;15.20;99.90
32977;DHT22;72327;50.842;4.450;2023-10-08T02:39:03;15.20;99.90
32977;DHT22;72327;50.842;4.450;2023-10-08T02:41:46;15.20;99.90
32977;DHT22;72327;50.842;4.450;2023-10-08T02:44:13;15.20;99.90
32977;DHT22;72327;50.842;4.450;2023-10-08T02:46:43;15.30;99.90
32977;DHT22;72327;50.842;4.450;2023-10-08T02:49:10;15.30;99.90
32977;DHT22;72327;50.842;4.450;2023-10-08T02:51:38;15.30;99.90
32977;DHT22;72327;50.842;4.450;2023-10-08T02:54:05;15.40;99.90
32977;DHT22;72327;50.842;4.450;2023-10-08T02:56:33;15.40;99.90
32977;DHT22;72327;50.842;4.450;2023-10-08T02:59:01;15.40;99.90
32977;DHT22;72327;50.842;4.450;2023-10-08T03:01:47;15.40;99.90
32977;DHT22;72327;50.842;4.450;2023-10-08T03:04:23;15.40;99.90
32977;DHT22;72327;50.842;4.450;2023-10-08T03:06:53;15.40;99.90
32977;DHT22;72327;50.842;4.450;2023-10-08T03:09:20;15.40;99.90
32977;DHT22;72327;50.842;4.450;2023-10-08T03:11:59;15.40;99.90
32977;DHT22;72327;50.842;4.450;2023-10-08T03:14:24;15.40;99.90
32977;DHT22;72327;50.842;4.450;2023-10-08T03:17:07;15.40;99.90
32977;DHT22;72327;50.842;4.450;2023-10-08T03:19:33;15.40;99.90
32977;DHT22;72327;50.842;4.450;2023-10-08T03:22:00;15.50;99.90
32977;DHT22;72327;50.842;4.450;2023-10-08T03:24:30;15.50;99.90
32977;DHT22;72327;50.842;4.450;2023-10-08T03:26:59;15.50;99.90
32977;DHT22;72327;50.842;4.450;2023-10-08T03:29:35;15.60;99.90
32977;DHT22;72327;50.842;4.450;2023-10-08T03:32:09;15.60;99.90
32977;DHT22;72327;50.842;4.450;2023-10-08T03:34:40;15.60;99.90
32977;DHT22;72327;50.842;4.450;2023-10-08T03:37:09;15.60;99.90
32977;DHT22;72327;50.842;4.450;2023-10-08T03:39:34;15.70;99.90
32977;DHT22;72327;50.842;4.450;2023-10-08T03:42:36;15.70;99.90
32977;DHT22;72327;50.842;4.450;2023-10-08T03:45:07;15.70;99.90
32977;DHT22;72327;50.842;4.450;2023-10-08T03:47:38;15.60;99.90
32977;DHT22;72327;50.842;4.450;2023-10-08T03:50:07;15.60;99.90
32977;DHT22;72327;50.842;4.450;2023-10-08T03:52:38;15.60;99.90
32977;DHT22;72327;50.842;4.450;2023-10-08T03:55:07;15.50;99.90
32977;DHT22;72327;50.842;4.450;2023-10-08T03:57:53;15.40;99.90
32977;DHT22;72327;50.842;4.450;2023-10-08T04:00:29;15.40;99.90
32977;DHT22;72327;50.842;4.450;2023-10-08T04:02:57;15.40;99.90
32977;DHT22;72327;50.842;4.450;2023-10-08T04:05:34;15.30;99.90
32977;DHT22;72327;50.842;4.450;2023-10-08T04:08:10;15.30;99.90
32977;DHT22;72327;50.842;4.450;2023-10-08T04:11:05;15.20;99.90
32977;DHT22;72327;50.842;4.450;2023-10-08T04:13:35;15.10;99.90
32977;DHT22;72327;50.842;4.450;2023-10-08T04:16:12;15.10;99.90
32977;DHT22;72327;50.842;4.450;2023-10-08T04:18:37;14.90;99.90
32977;DHT22;72327;50.842;4.450;2023-10-08T04:21:07;14.90;99.90
32977;DHT22;72327;50.842;4.450;2023-10-08T04:23:46;14.80;99.90
32977;DHT22;72327;50.842;4.450;2023-10-08T04:26:18;14.80;99.90
32977;DHT22;72327;50.842;4.450;2023-10-08T04:28:53;14.70;99.90
32977;DHT22;72327;50.842;4.450;2023-10-08T04:31:32;14.70;99.90
32977;DHT22;72327;50.842;4.450;2023-10-08T04:34:05;14.70;99.90
32977;DHT22;72327;50.842;4.450;2023-10-08T04:36:36;14.70;99.90
32977;DHT22;72327;50.842;4.450;2023-10-08T04:39:04;14.60;99.90
32977;DHT22;72327;50.842;4.450;2023-10-08T04:41:43;14.60;99.90
32977;DHT22;72327;50.842;4.450;2023-10-08T04:44:11;14.60;99.90
32977;DHT22;72327;50.842;4.450;2023-10-08T04:46:43;14.60;99.90
32977;DHT22;72327;50.842;4.450;2023-10-08T04:49:11;14.50;99.90
32977;DHT22;72327;50.842;4.450;2023-10-08T04:51:44;14.50;99.90
32977;DHT22;72327;50.842;4.450;2023-10-08T04:54:13;14.50;99.90
32977;DHT22;72327;50.842;4.450;2023-10-08T04:56:42;14.50;99.90
32977;DHT22;72327;50.842;4.450;2023-10-08T04:59:08;14.40;99.90
32977;DHT22;72327;50.842;4.450;2023-10-08T05:01:40;14.40;99.90
32977;DHT22;72327;50.842;4.450;2023-10-08T05:04:34;14.40;99.90
32977;DHT22;72327;50.842;4.450;2023-10-08T05:07:13;14.40;99.90
32977;DHT22;72327;50.842;4.450;2023-10-08T05:09:57;14.40;99.90
32977;DHT22;72327;50.842;4.450;2023-10-08T05:12:32;14.40;99.90
32977;DHT22;72327;50.842;4.450;2023-10-08T05:15:07;14.40;99.90
32977;DHT22;72327;50.842;4.450;2023-10-08T05:17:43;14.40;99.90
32977;DHT22;72327;50.842;4.450;2023-10-08T05:20:20;14.40;99.90
32977;DHT22;72327;50.842;4.450;2023-10-08T05:23:10;14.30;99.90
32977;DHT22;72327;50.842;4.450;2023-10-08T05:25:57;14.40;99.90
32977;DHT22;72327;50.842;4.450;2023-10-08T05:28:51;14.40;99.90
32977;DHT22;72327;50.842;4.450;2023-10-08T05:31:33;14.40;99.90
32977;DHT22;72327;50.842;4.450;2023-10-08T05:34:27;14.40;99.90
32977;DHT22;72327;50.842;4.450;2023-10-08T05:37:14;14.50;99.90
32977;DHT22;72327;50.842;4.450;2023-10-08T05:40:20;14.40;99.90
32977;DHT22;72327;50.842;4.450;2023-10-08T05:43:12;14.50;99.90
32977;DHT22;72327;50.842;4.450;2023-10-08T05:46:01;14.40;99.90
32977;DHT22;72327;50.842;4.450;2023-10-08T05:49:13;14.40;99.90
32977;DHT22;72327;50.842;4.450;2023-10-08T05:52:01;14.50;99.90
32977;DHT22;72327;50.842;4.450;2023-10-08T05:54:32;14.30;99.90
32977;DHT22;72327;50.842;4.450;2023-10-08T05:57:13;14.40;99.90
32977;DHT22;72327;50.842;4.450;2023-10-08T05:59:41;14.50;99.90
32977;DHT22;72327;50.842;4.450;2023-10-08T06:02:44;14.50;99.90
32977;DHT22;72327;50.842;4.450;2023-10-08T06:05:10;14.50;99.90
32977;DHT22;72327;50.842;4.450;2023-10-08T06:07:59;14.50;99.90
32977;DHT22;72327;50.842;4.450;2023-10-08T06:10:39;14.50;99.90
32977;DHT22;72327;50.842;4.450;2023-10-08T06:13:51;14.60;99.90
32977;DHT22;72327;50.842;4.450;2023-10-08T06:16:21;14.60;99.90
32977;DHT22;72327;50.842;4.450;2023-10-08T06:19:35;14.80;99.90
32977;DHT22;72327;50.842;4.450;2023-10-08T06:22:06;14.80;99.90
32977;DHT22;72327;50.842;4.450;2023-10-08T06:24:40;14.90;99.90
32977;DHT22;72327;50.842;4.450;2023-10-08T06:27:11;14.90;99.90
32977;DHT22;72327;50.842;4.450;2023-10-08T06:29:43;15.00;99.90
32977;DHT22;72327;50.842;4.450;2023-10-08T06:32:12;15.00;99.90
32977;DHT22;72327;50.842;4.450;2023-10-08T06:34:39;15.10;99.90
32977;DHT22;72327;50.842;4.450;2023-10-08T06:37:06;15.10;99.90
32977;DHT22;72327;50.842;4.450;2023-10-08T06:39:37;15.20;99.90
32977;DHT22;72327;50.842;4.450;2023-10-08T06:42:15;15.20;99.90
32977;DHT22;72327;50.842;4.450;2023-10-08T06:45:06;15.30;99.90
32977;DHT22;72327;50.842;4.450;2023-10-08T06:47:43;15.30;99.90
32977;DHT22;72327;50.842;4.450;2023-10-08T06:50:11;15.40;99.90
32977;DHT22;72327;50.842;4.450;2023-10-08T06:52:52;15.50;99.90
32977;DHT22;72327;50.842;4.450;2023-10-08T06:55:30;15.60;99.90
32977;DHT22;72327;50.842;4.450;2023-10-08T06:57:56;15.60;99.90
32977;DHT22;72327;50.842;4.450;2023-10-08T07:00:21;15.70;99.90
32977;DHT22;72327;50.842;4.450;2023-10-08T07:03:03;15.80;99.90
32977;DHT22;72327;50.842;4.450;2023-10-08T07:05:36;15.90;99.90
32977;DHT22;72327;50.842;4.450;2023-10-08T07:08:07;15.90;99.90
32977;DHT22;72327;50.842;4.450;2023-10-08T07:10:33;16.00;99.90
32977;DHT22;72327;50.842;4.450;2023-10-08T07:13:02;16.20;99.90
32977;DHT22;72327;50.842;4.450;2023-10-08T07:15:29;16.30;99.90
32977;DHT22;72327;50.842;4.450;2023-10-08T07:17:56;16.40;99.90
32977;DHT22;72327;50.842;4.450;2023-10-08T07:20:22;16.60;99.90
32977;DHT22;72327;50.842;4.450;2023-10-08T07:22:48;16.90;99.90
32977;DHT22;72327;50.842;4.450;2023-10-08T07:25:22;17.20;99.90
32977;DHT22;72327;50.842;4.450;2023-10-08T07:27:48;17.30;99.90
32977;DHT22;72327;50.842;4.450;2023-10-08T07:30:15;17.30;99.90
32977;DHT22;72327;50.842;4.450;2023-10-08T07:32:52;17.30;99.90
32977;DHT22;72327;50.842;4.450;2023-10-08T07:35:20;17.30;99.90
32977;DHT22;72327;50.842;4.450;2023-10-08T07:37:46;17.30;99.90
32977;DHT22;72327;50.842;4.450;2023-10-08T07:40:13;17.40;99.90
32977;DHT22;72327;50.842;4.450;2023-10-08T07:42:46;17.40;99.90
32977;DHT22;72327;50.842;4.450;2023-10-08T07:45:17;17.60;99.90
32977;DHT22;72327;50.842;4.450;2023-10-08T07:47:43;17.70;99.90
32977;DHT22;72327;50.842;4.450;2023-10-08T07:50:17;17.70;99.90
32977;DHT22;72327;50.842;4.450;2023-10-08T07:52:44;17.80;99.90
32977;DHT22;72327;50.842;4.450;2023-10-08T07:55:10;17.90;99.90
32977;DHT22;72327;50.842;4.450;2023-10-08T07:57:42;17.90;99.90
32977;DHT22;72327;50.842;4.450;2023-10-08T08:00:08;18.00;99.90
32977;DHT22;72327;50.842;4.450;2023-10-08T08:02:44;18.00;99.90
32977;DHT22;72327;50.842;4.450;2023-10-08T08:05:10;18.00;99.90
32977;DHT22;72327;50.842;4.450;2023-10-08T08:07:40;18.00;99.90
32977;DHT22;72327;50.842;4.450;2023-10-08T08:10:07;18.00;99.90
32977;DHT22;72327;50.842;4.450;2023-10-08T08:12:36;18.00;99.90
32977;DHT22;72327;50.842;4.450;2023-10-08T08:15:03;18.00;99.90
32977;DHT22;72327;50.842;4.450;2023-10-08T08:17:41;18.00;99.90
32977;DHT22;72327;50.842;4.450;2023-10-08T08:20:07;18.00;99.90
32977;DHT22;72327;50.842;4.450;2023-10-08T08:22:43;18.10;99.90
32977;DHT22;72327;50.842;4.450;2023-10-08T08:25:16;18.10;99.90
32977;DHT22;72327;50.842;4.450;2023-10-08T08:27:42;18.20;99.90
32977;DHT22;72327;50.842;4.450;2023-10-08T08:30:14;18.20;99.90
32977;DHT22;72327;50.842;4.450;2023-10-08T08:32:45;18.30;99.90
32977;DHT22;72327;50.842;4.450;2023-10-08T08:35:13;18.40;99.90
32977;DHT22;72327;50.842;4.450;2023-10-08T08:37:42;18.60;99.90
32977;DHT22;72327;50.842;4.450;2023-10-08T08:40:08;18.70;99.90
32977;DHT22;72327;50.842;4.450;2023-10-08T08:42:35;18.90;99.90
32977;DHT22;72327;50.842;4.450;2023-10-08T08:45:06;19.00;99.90
32977;DHT22;72327;50.842;4.450;2023-10-08T08:47:38;19.20;99.90
32977;DHT22;72327;50.842;4.450;2023-10-08T08:50:07;19.20;99.90
32977;DHT22;72327;50.842;4.450;2023-10-08T08:52:36;19.30;99.90
32977;DHT22;72327;50.842;4.450;2023-10-08T08:55:04;19.20;99.90
32977;DHT22;72327;50.842;4.450;2023-10-08T08:57:36;19.30;99.90
32977;DHT22;72327;50.842;4.450;2023-10-08T09:00:06;19.40;99.90
32977;DHT22;72327;50.842;4.450;2023-10-08T09:02:40;19.60;99.90
32977;DHT22;72327;50.842;4.450;2023-10-08T09:05:07;19.70;99.90
32977;DHT22;72327;50.842;4.450;2023-10-08T09:08:00;19.80;99.90
32977;DHT22;72327;50.842;4.450;2023-10-08T09:10:34;19.90;99.90
32977;DHT22;72327;50.842;4.450;2023-10-08T09:13:05;20.00;99.90
32977;DHT22;72327;50.842;4.450;2023-10-08T09:15:33;20.00;99.90
32977;DHT22;72327;50.842;4.450;2023-10-08T09:18:00;20.10;99.90
32977;DHT22;72327;50.842;4.450;2023-10-08T09:20:27;20.10;99.90
32977;DHT22;72327;50.842;4.450;2023-10-08T09:23:09;20.10;99.90
32977;DHT22;72327;50.842;4.450;2023-10-08T09:25:39;20.10;99.90
32977;DHT22;72327;50.842;4.450;2023-10-08T09:28:06;20.10;99.90
32977;DHT22;72327;50.842;4.450;2023-10-08T09:30:36;20.00;99.90
32977;DHT22;72327;50.842;4.450;2023-10-08T09:33:10;20.00;99.90
32977;DHT22;72327;50.842;4.450;2023-10-08T09:35:36;19.90;99.90
32977;DHT22;72327;50.842;4.450;2023-10-08T09:38:06;19.80;99.90
32977;DHT22;72327;50.842;4.450;2023-10-08T09:40:39;19.80;99.90
32977;DHT22;72327;50.842;4.450;2023-10-08T09:43:08;19.90;99.90
32977;DHT22;72327;50.842;4.450;2023-10-08T09:45:35;19.80;99.90
32977;DHT22;72327;50.842;4.450;2023-10-08T09:48:03;19.80;99.90
32977;DHT22;72327;50.842;4.450;2023-10-08T09:50:36;19.80;99.90
32977;DHT22;72327;50.842;4.450;2023-10-08T09:55:33;20.00;99.90
32977;DHT22;72327;50.842;4.450;2023-10-08T09:57:59;20.20;99.90
32977;DHT22;72327;50.842;4.450;2023-10-08T10:00:27;20.30;99.90
32977;DHT22;72327;50.842;4.450;2023-10-08T10:02:58;20.40;99.90
32977;DHT22;72327;50.842;4.450;2023-10-08T10:05:32;20.60;99.90
32977;DHT22;72327;50.842;4.450;2023-10-08T10:07:59;20.80;99.90
32977;DHT22;72327;50.842;4.450;2023-10-08T10:10:26;21.10;99.90
32977;DHT22;72327;50.842;4.450;2023-10-08T10:12:52;21.30;99.90
32977;DHT22;72327;50.842;4.450;2023-10-08T10:15:21;21.40;99.90
32977;DHT22;72327;50.842;4.450;2023-10-08T10:17:50;21.50;99.90
32977;DHT22;72327;50.842;4.450;2023-10-08T10:20:16;21.50;99.90
32977;DHT22;72327;50.842;4.450;2023-10-08T10:22:42;21.50;99.90
32977;DHT22;72327;50.842;4.450;2023-10-08T10:25:09;21.50;99.90
32977;DHT22;72327;50.842;4.450;2023-10-08T10:30:30;21.30;99.90
32977;DHT22;72327;50.842;4.450;2023-10-08T10:32:59;21.20;99.90
32977;DHT22;72327;50.842;4.450;2023-10-08T10:35:25;21.30;99.90
32977;DHT22;72327;50.842;4.450;2023-10-08T10:37:53;21.40;99.90
32977;DHT22;72327;50.842;4.450;2023-10-08T10:40:24;21.50;99.90
32977;DHT22;72327;50.842;4.450;2023-10-08T10:43:05;21.50;99.90
32977;DHT22;72327;50.842;4.450;2023-10-08T10:45:32;21.60;99.90
32977;DHT22;72327;50.842;4.450;2023-10-08T10:48:22;21.50;99.90
32977;DHT22;72327;50.842;4.450;2023-10-08T10:50:53;21.50;99.90
32977;DHT22;72327;50.842;4.450;2023-10-08T10:53:34;21.70;99.90
32977;DHT22;72327;50.842;4.450;2023-10-08T10:56:12;21.50;99.90
32977;DHT22;72327;50.842;4.450;2023-10-08T10:58:46;21.50;99.90
32977;DHT22;72327;50.842;4.450;2023-10-08T11:01:12;21.50;99.90
32977;DHT22;72327;50.842;4.450;2023-10-08T11:03:51;21.50;99.90
32977;DHT22;72327;50.842;4.450;2023-10-08T11:06:18;21.50;99.90
32977;DHT22;72327;50.842;4.450;2023-10-08T11:08:49;21.70;99.90
32977;DHT22;72327;50.842;4.450;2023-10-08T11:11:17;21.70;99.90
32977;DHT22;72327;50.842;4.450;2023-10-08T11:13:43;21.80;99.90
32977;DHT22;72327;50.842;4.450;2023-10-08T11:16:12;21.80;99.90
32977;DHT22;72327;50.842;4.450;2023-10-08T11:18:43;21.80;99.90
32977;DHT22;72327;50.842;4.450;2023-10-08T11:21:11;22.00;99.90
32977;DHT22;72327;50.842;4.450;2023-10-08T11:23:48;22.00;99.90
32977;DHT22;72327;50.842;4.450;2023-10-08T11:26:35;22.00;99.90
32977;DHT22;72327;50.842;4.450;2023-10-08T11:29:22;22.10;99.90
32977;DHT22;72327;50.842;4.450;2023-10-08T11:31:51;22.10;99.90
32977;DHT22;72327;50.842;4.450;2023-10-08T11:34:17;22.10;99.90
32977;DHT22;72327;50.842;4.450;2023-10-08T11:36:53;22.10;99.90
32977;DHT22;72327;50.842;4.450;2023-10-08T11:39:19;22.10;99.90
32977;DHT22;72327;50.842;4.450;2023-10-08T11:42:01;22.10;99.90
32977;DHT22;72327;50.842;4.450;2023-10-08T11:44:34;22.10;99.90
32977;DHT22;72327;50.842;4.450;2023-10-08T11:47:03;22.20;99.90
32977;DHT22;72327;50.842;4.450;2023-10-08T11:49:46;22.30;99.90
32977;DHT22;72327;50.842;4.450;2023-10-08T11:52:15;22.30;99.90
32977;DHT22;72327;50.842;4.450;2023-10-08T11:54:42;22.30;99.90
32977;DHT22;72327;50.842;4.450;2023-10-08T11:57:09;22.30;99.90
32977;DHT22;72327;50.842;4.450;2023-10-08T11:59:35;22.30;99.90
32977;DHT22;72327;50.842;4.450;2023-10-08T12:02:06;22.40;99.90
32977;DHT22;72327;50.842;4.450;2023-10-08T12:04:32;22.40;99.90
32977;DHT22;72327;50.842;4.450;2023-10-08T12:06:57;22.40;99.90
32977;DHT22;72327;50.842;4.450;2023-10-08T12:09:27;22.60;99.90
32977;DHT22;72327;50.842;4.450;2023-10-08T12:11:53;22.70;99.90
32977;DHT22;72327;50.842;4.450;2023-10-08T12:14:19;22.60;99.90
32977;DHT22;72327;50.842;4.450;2023-10-08T12:16:44;22.80;99.90
32977;DHT22;72327;50.842;4.450;2023-10-08T12:19:11;22.90;99.90
32977;DHT22;72327;50.842;4.450;2023-10-08T12:21:44;22.90;99.90
32977;DHT22;72327;50.842;4.450;2023-10-08T12:24:13;23.00;99.90
32977;DHT22;72327;50.842;4.450;2023-10-08T12:26:40;23.10;99.90
32977;DHT22;72327;50.842;4.450;2023-10-08T12:29:15;23.30;99.90
32977;DHT22;72327;50.842;4.450;2023-10-08T12:31:42;23.40;99.90
32977;DHT22;72327;50.842;4.450;2023-10-08T12:34:15;23.50;99.90
32977;DHT22;72327;50.842;4.450;2023-10-08T12:36:42;23.60;99.90
32977;DHT22;72327;50.842;4.450;2023-10-08T12:39:08;23.60;99.90
32977;DHT22;72327;50.842;4.450;2023-10-08T12:41:44;23.70;99.90
32977;DHT22;72327;50.842;4.450;2023-10-08T12:44:10;23.60;99.90
32977;DHT22;72327;50.842;4.450;2023-10-08T12:46:36;23.80;99.90
32977;DHT22;72327;50.842;4.450;2023-10-08T12:49:02;24.10;99.90
32977;DHT22;72327;50.842;4.450;2023-10-08T12:51:29;23.90;99.90
32977;DHT22;72327;50.842;4.450;2023-10-08T12:53:59;24.10;99.90
32977;DHT22;72327;50.842;4.450;2023-10-08T12:56:29;24.00;99.90
32977;DHT22;72327;50.842;4.450;2023-10-08T12:59:01;24.00;99.90
32977;DHT22;72327;50.842;4.450;2023-10-08T13:01:29;24.20;99.90
32977;DHT22;72327;50.842;4.450;2023-10-08T13:03:56;24.40;99.90
32977;DHT22;72327;50.842;4.450;2023-10-08T13:06:33;24.30;99.90
32977;DHT22;72327;50.842;4.450;2023-10-08T13:08:59;24.50;99.90
32977;DHT22;72327;50.842;4.450;2023-10-08T13:11:27;24.60;99.90
32977;DHT22;72327;50.842;4.450;2023-10-08T13:13:56;24.30;99.90
32977;DHT22;72327;50.842;4.450;2023-10-08T13:16:23;23.90;99.90
32977;DHT22;72327;50.842;4.450;2023-10-08T13:18:49;23.80;99.90
32977;DHT22;72327;50.842;4.450;2023-10-08T13:21:16;23.70;99.90
32977;DHT22;72327;50.842;4.450;2023-10-08T13:23:42;23.80;99.90
32977;DHT22;72327;50.842;4.450;2023-10-08T13:26:08;23.80;99.90
32977;DHT22;72327;50.842;4.450;2023-10-08T13:28:36;24.00;99.90
32977;DHT22;72327;50.842;4.450;2023-10-08T13:31:05;24.00;99.90
32977;DHT22;72327;50.842;4.450;2023-10-08T13:33:41;24.20;99.90
32977;DHT22;72327;50.842;4.450;2023-10-08T13:36:15;24.40;99.80
32977;DHT22;72327;50.842;4.450;2023-10-08T13:38:45;24.50;99.90
32977;DHT22;72327;50.842;4.450;2023-10-08T13:41:21;24.60;99.70
32977;DHT22;72327;50.842;4.450;2023-10-08T13:44:00;24.60;99.70
32977;DHT22;72327;50.842;4.450;2023-10-08T13:46:31;24.70;99.70
32977;DHT22;72327;50.842;4.450;2023-10-08T13:49:03;24.50;98.30
32977;DHT22;72327;50.842;4.450;2023-10-08T13:51:33;24.40;98.30
32977;DHT22;72327;50.842;4.450;2023-10-08T13:54:00;24.40;98.30
32977;DHT22;72327;50.842;4.450;2023-10-08T13:56:27;24.20;98.40
32977;DHT22;72327;50.842;4.450;2023-10-08T13:58:56;24.20;98.00
32977;DHT22;72327;50.842;4.450;2023-10-08T14:01:30;24.10;98.50
32977;DHT22;72327;50.842;4.450;2023-10-08T14:03:59;24.10;99.10
32977;DHT22;72327;50.842;4.450;2023-10-08T14:06:32;24.10;99.50
32977;DHT22;72327;50.842;4.450;2023-10-08T14:08:58;24.20;99.10
32977;DHT22;72327;50.842;4.450;2023-10-08T14:11:30;24.10;98.60
32977;DHT22;72327;50.842;4.450;2023-10-08T14:13:56;23.80;98.90
32977;DHT22;72327;50.842;4.450;2023-10-08T14:16:23;23.90;99.20
32977;DHT22;72327;50.842;4.450;2023-10-08T14:18:52;23.90;99.10
32977;DHT22;72327;50.842;4.450;2023-10-08T14:21:23;24.00;99.00
32977;DHT22;72327;50.842;4.450;2023-10-08T14:23:50;23.90;99.60
32977;DHT22;72327;50.842;4.450;2023-10-08T14:26:19;24.10;99.30
32977;DHT22;72327;50.842;4.450;2023-10-08T14:28:51;24.30;99.20
32977;DHT22;72327;50.842;4.450;2023-10-08T14:31:41;24.50;98.90
32977;DHT22;72327;50.842;4.450;2023-10-08T14:34:34;24.80;98.80
32977;DHT22;72327;50.842;4.450;2023-10-08T14:37:18;24.90;98.70
32977;DHT22;72327;50.842;4.450;2023-10-08T14:40:06;25.10;98.70
32977;DHT22;72327;50.842;4.450;2023-10-08T14:42:53;25.20;98.30
32977;DHT22;72327;50.842;4.450;2023-10-08T14:45:23;25.10;98.10
32977;DHT22;72327;50.842;4.450;2023-10-08T14:47:55;25.10;98.40
32977;DHT22;72327;50.842;4.450;2023-10-08T14:50:24;25.20;98.40
32977;DHT22;72327;50.842;4.450;2023-10-08T14:53:00;25.20;98.40
32977;DHT22;72327;50.842;4.450;2023-10-08T14:55:31;25.10;98.30
32977;DHT22;72327;50.842;4.450;2023-10-08T14:58:01;25.00;98.40
32977;DHT22;72327;50.842;4.450;2023-10-08T15:00:33;25.00;98.70
32977;DHT22;72327;50.842;4.450;2023-10-08T15:03:02;25.00;98.70
32977;DHT22;72327;50.842;4.450;2023-10-08T15:05:31;25.00;99.00
32977;DHT22;72327;50.842;4.450;2023-10-08T15:07:57;24.90;99.00
32977;DHT22;72327;50.842;4.450;2023-10-08T15:10:23;24.90;99.20
32977;DHT22;72327;50.842;4.450;2023-10-08T15:12:49;24.80;99.20
32977;DHT22;72327;50.842;4.450;2023-10-08T15:15:19;24.70;99.20
32977;DHT22;72327;50.842;4.450;2023-10-08T15:17:49;24.70;99.40
32977;DHT22;72327;50.842;4.450;2023-10-08T15:20:16;24.50;99.80
32977;DHT22;72327;50.842;4.450;2023-10-08T15:22:47;24.40;99.90
32977;DHT22;72327;50.842;4.450;2023-10-08T15:25:23;24.40;99.90
32977;DHT22;72327;50.842;4.450;2023-10-08T15:27:49;24.30;99.90
32977;DHT22;72327;50.842;4.450;2023-10-08T15:30:19;24.20;99.90
32977;DHT22;72327;50.842;4.450;2023-10-08T15:32:46;24.10;99.90
32977;DHT22;72327;50.842;4.450;2023-10-08T15:35:14;24.10;99.90
32977;DHT22;72327;50.842;4.450;2023-10-08T15:37:45;24.00;99.90
32977;DHT22;72327;50.842;4.450;2023-10-08T15:40:13;23.90;99.90
32977;DHT22;72327;50.842;4.450;2023-10-08T15:42:51;24.00;99.90
32977;DHT22;72327;50.842;4.450;2023-10-08T15:45:18;23.90;99.90
32977;DHT22;72327;50.842;4.450;2023-10-08T15:47:46;23.90;99.90
32977;DHT22;72327;50.842;4.450;2023-10-08T15:50:12;23.80;99.90
32977;DHT22;72327;50.842;4.450;2023-10-08T15:52:38;23.80;99.90
32977;DHT22;72327;50.842;4.450;2023-10-08T15:55:07;23.80;99.90
32977;DHT22;72327;50.842;4.450;2023-10-08T15:57:36;23.80;99.90
32977;DHT22;72327;50.842;4.450;2023-10-08T16:00:03;23.80;99.90
32977;DHT22;72327;50.842;4.450;2023-10-08T16:02:30;23.80;99.90
32977;DHT22;72327;50.842;4.450;2023-10-08T16:04:56;23.70;99.90
32977;DHT22;72327;50.842;4.450;2023-10-08T16:07:21;23.60;99.90